Address 0x52822fb548f34fe874d1bebe53c5ec223a690355 2

Txn Hash Method
Block
From
To
Value [Txn Fee]
0x5e7d5eb7ef24944fd640903844eb1d1e9d1c0f3d0bf7b11581cefe3661880d40Add Liquidity29835662022-11-14 0:09:0080 days 18 hrs ago0x52822fb548f34fe874d1bebe53c5ec223a690355OUT 0xd8fc27ec222e8d5172cd63ac453c6dfb7467a3c70 MOVR0.000781572
0xef380d7c6ccb5fb8d1a339f7b11e56df4ec81c80925aa04614532fa6d75ac43eApprove29835642022-11-14 0:08:3680 days 18 hrs ago0x52822fb548f34fe874d1bebe53c5ec223a690355OUT 0x98878b06940ae243284ca214f92bb71a2b032b8a0 MOVR0.000138096
0x016e14591c2870ece170b6c4633063c8f363754727fab18546d07f47c244b132Approve29835622022-11-14 0:08:1280 days 18 hrs ago0x52822fb548f34fe874d1bebe53c5ec223a690355OUT Frax Finance: FRAX Token0 MOVR0.000138783
0xeb6fe8581a1b0cf0b03ff14c056f915339638d8763b80926037cfd0483bd3987Create Pair29835602022-11-14 0:07:4880 days 18 hrs ago0x52822fb548f34fe874d1bebe53c5ec223a690355OUT 0x7fb05ca29dac7f5690e9b5ae0af0415d579d7cd30 MOVR0.014203884
0x9e62d3310dec7fbef596661ddb802d149a2dc244657d683c797768256886e68eAdd Liquidity29835582022-11-14 0:07:2480 days 18 hrs ago0x52822fb548f34fe874d1bebe53c5ec223a690355OUT 0xd8fc27ec222e8d5172cd63ac453c6dfb7467a3c70 MOVR0.000788541
0x81dcbebdc7de37588a071181184b7eaf71a0a834387c541cf8363b0912028168Approve29835562022-11-14 0:06:5480 days 18 hrs ago0x52822fb548f34fe874d1bebe53c5ec223a690355OUT Frax Finance: FXS Token0 MOVR0.000138783
0x7544423555ab1857d58fd4f0bfd971da590d95b3d7294a85bc6b661ce16435a4Approve29835542022-11-14 0:06:3080 days 18 hrs ago0x52822fb548f34fe874d1bebe53c5ec223a690355OUT Frax Finance: FRAX Token0 MOVR0.000138783
0xb408494de49fdc9d4a747db3108d9f0494e76eae0031baaf74561112b607f91cCreate Pair29835522022-11-14 0:06:0680 days 18 hrs ago0x52822fb548f34fe874d1bebe53c5ec223a690355OUT 0x7fb05ca29dac7f5690e9b5ae0af0415d579d7cd30 MOVR0.014255184
0xb74d200bb22a76de34f6a631744cf7c19873b34235a0522d843abb7f1ebd5ae9Transfer20865892022-06-25 3:02:36222 days 15 hrs ago0x52822fb548f34fe874d1bebe53c5ec223a690355OUT 0xbc51b555e43ff2ded8fcd4f011c147eacf5b9d970 MOVR0.0000975125
0x7c64bfac9f0ac86fe95cc3e9ab0306210680fcd085bdbe2cb6952e5c8d8cb973Transfer20865892022-06-25 3:02:36222 days 15 hrs ago0x52822fb548f34fe874d1bebe53c5ec223a690355OUT 0x7ba574cf7f40d4df1a7b2ddef8106557490976fa0 MOVR0.000103105
0x34dfa55848e9dadb906aae5e5ee7ff845d6ca98000ee6f13fe12999db30e8509Transfer20865882022-06-25 3:02:12222 days 15 hrs ago0x52822fb548f34fe874d1bebe53c5ec223a690355OUT Multichain: USDT Token0 MOVR0.000121855
0xc716c640d1f9643b600954210fe2c6e6063a8832623806aaaa6dd6613b82f5aaTransfer20865872022-06-25 3:02:00222 days 15 hrs ago0x52822fb548f34fe874d1bebe53c5ec223a690355OUT Multichain: USDC Token0 MOVR0.000072075
0xa746aff329492da466c2002a2d701e1e4587122804734c2ae2241607e2b53766Transfer20865862022-06-25 3:01:48222 days 15 hrs ago0x52822fb548f34fe874d1bebe53c5ec223a690355OUT Frax Finance: FXS Token0 MOVR0.000072845
0x6891fc152bbc1b53ce492489950788c5879dc7fa1d80d8433215a845778279b4Transfer20865852022-06-25 3:01:36222 days 15 hrs ago0x52822fb548f34fe874d1bebe53c5ec223a690355OUT0x5180db0237291a6449dda9ed33ad90a38787621c238.10012173 MOVR0.0000525
0xe435c56e7b47d7595807b98042d9313f5c8b9156b193be0d0b0c33499ca75c84Transfer14839602022-02-14 17:18:48353 days 1 hr ago0x52822fb548f34fe874d1bebe53c5ec223a690355OUT0x232d730a142205ef2fce3e9ca660d74783111f997.5 MOVR0.000042
0x2b81cb55e50c45abf9cc94675e5fb7d7adc8adb7c18cbf6c39466048793e8cd1Transfer14839592022-02-14 17:18:30353 days 1 hr ago0x52822fb548f34fe874d1bebe53c5ec223a690355OUT0xd6e56c6af83b240e3cf80af1bcf541c1781744d87.5 MOVR0.000021
0xf08fef8c097f0bc61afed54f0211e67dc817ebb419709b8f03b5493f1a00585fTransfer Ownersh...11919362021-12-30 4:49:48399 days 13 hrs ago0x52822fb548f34fe874d1bebe53c5ec223a690355OUT 0x88cc32a8738c6285b316e461edc5f318996f51a10 MOVR0.000026613
0x1380ff1a7016a10a8bcb36b6c69fd45cdf0c3903b4b0b1062aebf5d7d54c6f78Transfer11918802021-12-30 4:37:36399 days 13 hrs ago0x52822fb548f34fe874d1bebe53c5ec223a690355OUT Frax Finance: FXS Token0 MOVR0.000047114
0x8e70027cbd5bc6a7081ccc84861e0c9390c30e66163536311a8d7d0054184b57Transfer11918782021-12-30 4:37:12399 days 13 hrs ago0x52822fb548f34fe874d1bebe53c5ec223a690355OUT Multichain: USDC Token0 MOVR0.000046854
0x76162b972c1d7d24b5af1d52973139e889acd82a368d6125884623edbb5847adSwap11918082021-12-30 4:22:12399 days 14 hrs ago0x52822fb548f34fe874d1bebe53c5ec223a690355OUT 0x7be2d3fee573fe1a865799e746fe1ceb93301fe60 MOVR0.000095849
0xc74a0201447593d84e281e55d6ca2fcd2a82d4e59cf011617701a86c468f8ccfApprove11918062021-12-30 4:21:42399 days 14 hrs ago0x52822fb548f34fe874d1bebe53c5ec223a690355OUT Frax Finance: FRAX Token0 MOVR0.000044209
0x92318b6f7b49d0cbc5072ffacba2fc0c776de1019cda38a5de5ee23ae2044354Swap11918022021-12-30 4:20:54399 days 14 hrs ago0x52822fb548f34fe874d1bebe53c5ec223a690355OUT 0x7be2d3fee573fe1a865799e746fe1ceb93301fe60 MOVR0.00018716
0x8dbb7bda490670af833764a9eefccc137d7942ab30e13f6992e8525c2a1c157bApprove11917992021-12-30 4:20:18399 days 14 hrs ago0x52822fb548f34fe874d1bebe53c5ec223a690355OUT Multichain: USDC Token0 MOVR0.000044247
0xf923eddfb65d667066d80d9ef721d911bc40864553ea4af5ce151c95f32c23fbAdd Liquidity11917832021-12-30 4:16:54399 days 14 hrs ago0x52822fb548f34fe874d1bebe53c5ec223a690355OUT 0x7be2d3fee573fe1a865799e746fe1ceb93301fe60 MOVR0.000183271
0x82984dafe46c258d047dbc48914d62395ebaddcb6acdd58dd30f9b418c1d8ffeApprove11917802021-12-30 4:16:18399 days 14 hrs ago0x52822fb548f34fe874d1bebe53c5ec223a690355OUT Multichain: USDC Token0 MOVR0.000044187
[ Download CSV Export 
Latest 4 internal transactions
Parent Txn Hash Block From To Value
0xef5d811e766aceea1cb37f3503692599a1548301457ac153d7acc006319976579864972021-11-29 3:14:12430 days 15 hrs ago Solarbeam: Solar Router0x52822fb548f34fe874d1bebe53c5ec223a6903550.002302246942264897 MOVR
0x8758abe1daaca6e93d92cd76d2950f1e9708088d708bca731103250b0219fa528842542021-11-11 1:08:48448 days 17 hrs ago SushiSwap: Router0x52822fb548f34fe874d1bebe53c5ec223a6903550.298943244137358457 MOVR
0x23444a9c3c9c01ece9f55418583384d2c6daf31ec22e9f6aae28ca105ab980b08840502021-11-11 0:15:06448 days 18 hrs ago SushiSwap: Router0x52822fb548f34fe874d1bebe53c5ec223a6903550.002990166979162491 MOVR
0x9d336a3b46e8ab650b46b6f7b984ed71ee0bfd11e69ea078cc2f0979261adbec8839662021-11-10 23:53:30448 days 18 hrs ago SushiSwap: Router0x52822fb548f34fe874d1bebe53c5ec223a6903550.014845252730759162 MOVR
[ Download CSV Export 
Loading

Contract Name:
0

Compiler Version
0

Optimization Enabled:
0

Other Settings:
-NA-
Block Transaction Gas Used Reward
Age Block Fee Address BC Fee Address Voting Power Jailed Incoming
Block Uncle Number Difficulty Gas Used Reward
Loading
Loading
Make sure to use the "Vote Down" button for any spammy posts, and the "Vote Up" for interesting conversations.